createdAt,value
2023-02-26T00:00:14.017Z,33.50
2023-02-26T00:03:06.515Z,32.30
2023-02-26T00:05:38.799Z,30.90
2023-02-26T00:08:11.234Z,31.10
2023-02-26T00:10:43.652Z,32.10
2023-02-26T00:13:17.169Z,31.50
2023-02-26T00:15:52.581Z,35.30
2023-02-26T00:18:25.763Z,27.50
2023-02-26T00:20:59.417Z,28.50
2023-02-26T00:23:32.387Z,26.30
2023-02-26T00:26:04.718Z,32.00
2023-02-26T00:28:38.295Z,34.60
2023-02-26T00:31:12.530Z,31.50
2023-02-26T00:33:46.736Z,33.80
2023-02-26T00:36:26.092Z,32.10
2023-02-26T00:39:11.284Z,34.50
2023-02-26T00:41:44.724Z,32.60
2023-02-26T00:44:18.483Z,31.70
2023-02-26T00:46:55.718Z,28.20
2023-02-26T00:49:40.085Z,27.40
2023-02-26T00:52:20.610Z,30.70
2023-02-26T00:54:52.854Z,34.00
2023-02-26T00:57:25.190Z,29.70
2023-02-26T00:59:57.571Z,28.30
2023-02-26T01:02:31.045Z,27.50
2023-02-26T01:05:04.774Z,26.70
2023-02-26T01:07:46.739Z,29.90
2023-02-26T01:10:21.160Z,29.90
2023-02-26T01:12:56.085Z,29.80
2023-02-26T01:15:29.431Z,35.30
2023-02-26T01:18:11.343Z,31.80
2023-02-26T01:20:49.106Z,33.20
2023-02-26T01:23:27.264Z,31.70
2023-02-26T01:26:03.673Z,31.90
2023-02-26T01:28:37.262Z,37.20
2023-02-26T01:31:20.543Z,34.00
2023-02-26T01:33:57.858Z,30.80
2023-02-26T01:36:37.638Z,33.10
2023-02-26T01:39:14.006Z,34.30
2023-02-26T01:41:51.283Z,37.70
2023-02-26T01:44:28.909Z,31.60
2023-02-26T01:47:13.002Z,35.10
2023-02-26T01:49:46.269Z,37.70
2023-02-26T01:52:48.926Z,36.70
2023-02-26T01:55:24.763Z,35.40
2023-02-26T02:00:30.311Z,35.50
2023-02-26T02:03:03.330Z,31.60
2023-02-26T02:05:43.190Z,34.10
2023-02-26T02:08:16.916Z,32.20
2023-02-26T02:10:52.638Z,32.70
2023-02-26T02:13:37.053Z,31.20
2023-02-26T02:16:22.548Z,30.70
2023-02-26T02:19:04.434Z,30.40
2023-02-26T02:21:55.585Z,31.70
2023-02-26T02:24:41.495Z,29.90
2023-02-26T02:27:20.406Z,32.30
2023-02-26T02:30:11.263Z,31.00
2023-02-26T02:32:48.592Z,30.40
2023-02-26T02:35:26.046Z,30.80
2023-02-26T02:38:05.684Z,32.60
2023-02-26T02:40:43.086Z,31.40
2023-02-26T02:43:19.846Z,31.40
2023-02-26T02:45:56.108Z,29.20
2023-02-26T02:48:33.522Z,32.20
2023-02-26T02:51:10.066Z,32.30
2023-02-26T02:53:45.625Z,30.80
2023-02-26T02:56:22.117Z,33.80
2023-02-26T02:58:59.429Z,30.50
2023-02-26T03:01:34.535Z,30.50
2023-02-26T03:04:10.411Z,31.60
2023-02-26T03:09:14.372Z,30.70
2023-02-26T03:11:46.719Z,28.30
2023-02-26T03:14:19.466Z,29.50
2023-02-26T03:17:15.410Z,31.70
2023-02-26T03:20:01.166Z,32.20
2023-02-26T03:22:41.219Z,32.40
2023-02-26T03:25:18.164Z,28.20
2023-02-26T03:27:56.528Z,32.00
2023-02-26T03:30:35.590Z,28.30
2023-02-26T03:33:15.305Z,33.10
2023-02-26T03:35:54.929Z,31.40
2023-02-26T03:38:34.313Z,29.30
2023-02-26T03:41:11.267Z,29.50
2023-02-26T03:43:47.719Z,31.50
2023-02-26T03:46:23.869Z,32.30
2023-02-26T03:48:59.333Z,32.30
2023-02-26T03:51:32.267Z,32.00
2023-02-26T03:54:09.967Z,32.50
2023-02-26T03:56:45.207Z,32.80
2023-02-26T03:59:18.603Z,33.00
2023-02-26T04:01:56.143Z,32.90
2023-02-26T04:04:33.965Z,35.20
2023-02-26T04:07:06.520Z,31.60
2023-02-26T04:09:39.145Z,34.50
2023-02-26T04:12:11.880Z,29.00
2023-02-26T04:14:44.296Z,33.10
2023-02-26T04:17:18.629Z,31.30
2023-02-26T04:19:51.244Z,33.90
2023-02-26T04:22:23.694Z,34.00
2023-02-26T04:24:55.997Z,34.50
2023-02-26T04:27:28.410Z,34.90
2023-02-26T04:30:00.762Z,30.30
2023-02-26T04:32:33.195Z,31.80
2023-02-26T04:35:05.977Z,28.20
2023-02-26T04:37:38.348Z,36.30
2023-02-26T04:40:13.212Z,32.10
2023-02-26T04:42:47.418Z,32.10
2023-02-26T04:45:20.078Z,30.70
2023-02-26T04:47:52.445Z,30.60
2023-02-26T04:50:24.805Z,31.40
2023-02-26T04:52:57.211Z,27.10
2023-02-26T04:55:29.595Z,28.90
2023-02-26T04:58:01.859Z,31.30
2023-02-26T05:00:34.933Z,26.70
2023-02-26T05:03:08.844Z,31.30
2023-02-26T05:05:41.315Z,24.60
2023-02-26T05:08:14.264Z,21.60
2023-02-26T05:10:47.122Z,21.00
2023-02-26T05:13:19.543Z,22.40
2023-02-26T05:15:54.446Z,22.30
2023-02-26T05:18:26.868Z,20.30
2023-02-26T05:20:59.877Z,21.70
2023-02-26T05:23:32.154Z,22.20
2023-02-26T05:26:05.040Z,21.20
2023-02-26T05:28:38.286Z,21.50
2023-02-26T05:31:10.922Z,23.60
2023-02-26T05:33:43.977Z,22.90
2023-02-26T05:36:16.438Z,23.20
2023-02-26T05:38:48.725Z,20.40
2023-02-26T05:41:21.238Z,18.60
2023-02-26T05:43:53.995Z,20.30
2023-02-26T05:46:26.554Z,17.50
2023-02-26T05:48:59.088Z,14.30
2023-02-26T05:51:31.613Z,19.10
2023-02-26T05:54:03.964Z,15.60
2023-02-26T05:56:36.236Z,17.80
2023-02-26T05:59:08.465Z,15.80
2023-02-26T06:01:40.860Z,17.40
2023-02-26T06:04:13.166Z,19.30
2023-02-26T06:06:45.494Z,20.70
2023-02-26T06:09:18.139Z,23.90
2023-02-26T06:11:50.506Z,19.90
2023-02-26T06:14:22.945Z,29.70
2023-02-26T06:16:55.374Z,33.00
2023-02-26T06:19:27.828Z,28.80
2023-02-26T06:22:00.216Z,32.60
2023-02-26T06:24:32.505Z,31.00
2023-02-26T06:27:04.798Z,31.50
2023-02-26T06:29:37.790Z,34.60
2023-02-26T06:32:10.457Z,29.90
2023-02-26T06:34:42.938Z,35.40
2023-02-26T06:37:15.442Z,34.70
2023-02-26T06:39:47.834Z,33.30
2023-02-26T06:42:20.416Z,34.60
2023-02-26T06:44:52.798Z,32.20
2023-02-26T06:47:25.121Z,34.40
2023-02-26T06:49:57.601Z,35.60
2023-02-26T06:52:29.918Z,37.90
2023-02-26T06:55:02.248Z,34.80
2023-02-26T06:57:34.749Z,34.30
2023-02-26T07:00:09.439Z,35.70
2023-02-26T07:02:41.931Z,35.10
2023-02-26T07:05:14.517Z,37.10
2023-02-26T07:07:47.180Z,34.00
2023-02-26T07:10:21.714Z,37.00
2023-02-26T07:12:54.133Z,35.20
2023-02-26T07:15:26.577Z,37.20
2023-02-26T07:18:00.264Z,35.80
2023-02-26T07:20:32.899Z,32.30
2023-02-26T07:23:05.606Z,54.90
2023-02-26T07:25:38.675Z,36.20
2023-02-26T07:28:11.055Z,35.20
2023-02-26T07:30:43.528Z,29.50
2023-02-26T07:33:16.180Z,29.80
2023-02-26T07:35:48.506Z,29.90
2023-02-26T07:38:20.913Z,30.60
2023-02-26T07:40:55.692Z,27.60
2023-02-26T07:43:27.983Z,28.60
2023-02-26T07:46:00.504Z,30.90
2023-02-26T07:48:32.887Z,28.20
2023-02-26T07:51:07.430Z,29.60
2023-02-26T07:53:40.180Z,28.50
2023-02-26T07:56:12.541Z,26.30
2023-02-26T07:58:44.902Z,29.60
2023-02-26T08:01:17.356Z,30.70
2023-02-26T08:03:49.668Z,28.80
2023-02-26T08:06:21.954Z,29.70
2023-02-26T08:08:54.242Z,29.40
2023-02-26T08:11:26.616Z,32.10
2023-02-26T08:13:59.116Z,30.80
2023-02-26T08:16:31.503Z,35.00
2023-02-26T08:19:03.800Z,30.80
2023-02-26T08:21:36.172Z,30.40
2023-02-26T08:24:09.128Z,31.70
2023-02-26T08:26:41.489Z,29.40
2023-02-26T08:29:14.083Z,29.20
2023-02-26T08:31:47.064Z,31.40
2023-02-26T08:34:19.553Z,29.30
2023-02-26T08:36:51.930Z,27.20
2023-02-26T08:39:24.385Z,35.60
2023-02-26T08:41:56.691Z,33.70
2023-02-26T08:44:29.042Z,29.50
2023-02-26T08:47:01.370Z,29.20
2023-02-26T08:49:33.776Z,33.40
2023-02-26T08:52:06.368Z,32.20
2023-02-26T08:54:38.853Z,29.70
2023-02-26T08:57:11.217Z,31.50
2023-02-26T08:59:43.716Z,30.30
2023-02-26T09:02:16.218Z,31.10
2023-02-26T09:04:48.605Z,33.50
2023-02-26T09:07:20.923Z,33.50
2023-02-26T09:09:53.200Z,33.90
2023-02-26T09:12:25.702Z,31.80
2023-02-26T09:14:59.275Z,31.30
2023-02-26T09:17:31.607Z,32.50
2023-02-26T09:20:04.959Z,33.90
2023-02-26T09:22:38.159Z,32.90
2023-02-26T09:25:12.157Z,34.20
2023-02-26T09:27:44.489Z,31.50
2023-02-26T09:30:18.371Z,33.50
2023-02-26T09:32:50.867Z,33.80
2023-02-26T09:35:23.569Z,33.30
2023-02-26T09:37:55.874Z,32.50
2023-02-26T09:40:38.257Z,24.40
2023-02-26T09:43:35.272Z,28.00
2023-02-26T09:46:13.814Z,19.40
2023-02-26T09:48:47.739Z,17.40
2023-02-26T09:51:23.826Z,9.70
2023-02-26T09:54:01.017Z,8.20
2023-02-26T09:56:38.169Z,7.30
2023-02-26T09:59:12.285Z,7.30
2023-02-26T10:01:52.400Z,7.30
2023-02-26T10:04:40.921Z,6.80
2023-02-26T10:07:23.161Z,7.10
2023-02-26T10:10:06.848Z,9.20
2023-02-26T10:12:42.062Z,8.70
2023-02-26T10:15:19.388Z,7.80
2023-02-26T10:18:04.642Z,7.30
2023-02-26T10:20:43.234Z,7.10
2023-02-26T10:23:26.388Z,8.40
2023-02-26T10:26:04.525Z,6.30
2023-02-26T10:28:52.343Z,6.50
2023-02-26T10:31:33.875Z,6.50
2023-02-26T10:34:23.213Z,7.40
2023-02-26T10:37:05.800Z,7.80
2023-02-26T10:39:45.787Z,7.50
2023-02-26T10:42:25.900Z,8.20
2023-02-26T10:45:09.131Z,7.20
2023-02-26T10:47:51.318Z,10.20
2023-02-26T10:50:26.726Z,7.80
2023-02-26T10:53:00.315Z,7.50
2023-02-26T10:55:40.591Z,5.50
2023-02-26T10:58:16.803Z,7.80
2023-02-26T11:00:53.954Z,8.40
2023-02-26T11:03:35.666Z,7.40
2023-02-26T11:06:09.614Z,5.80
2023-02-26T11:08:45.359Z,6.90
2023-02-26T11:11:39.152Z,7.60
2023-02-26T11:14:12.822Z,7.70
2023-02-26T11:16:50.407Z,9.30
2023-02-26T11:19:28.650Z,6.80
2023-02-26T11:22:04.278Z,7.40
2023-02-26T11:27:13.655Z,6.60
2023-02-26T11:29:50.651Z,7.10
2023-02-26T11:32:30.040Z,6.50
2023-02-26T11:35:02.514Z,8.10
2023-02-26T11:37:39.741Z,5.80
2023-02-26T11:40:18.810Z,9.40
2023-02-26T11:42:54.784Z,10.00
2023-02-26T11:45:27.764Z,8.80
2023-02-26T11:48:05.236Z,7.80
2023-02-26T11:50:44.283Z,7.30
2023-02-26T11:53:25.497Z,8.00
2023-02-26T11:56:03.710Z,9.60
2023-02-26T11:58:41.067Z,9.50
2023-02-26T12:01:14.950Z,8.30
2023-02-26T12:03:51.280Z,8.90
2023-02-26T12:06:25.835Z,7.40
2023-02-26T12:08:58.479Z,6.20
2023-02-26T12:11:57.796Z,9.00
2023-02-26T12:14:48.666Z,9.60
2023-02-26T12:17:33.430Z,7.00
2023-02-26T12:20:20.115Z,9.00
2023-02-26T12:23:03.544Z,10.10
2023-02-26T12:25:53.921Z,7.20
2023-02-26T12:28:55.485Z,8.90
2023-02-26T12:31:45.685Z,7.50
2023-02-26T12:34:29.639Z,8.70
2023-02-26T12:37:31.210Z,7.20
2023-02-26T12:40:13.641Z,8.80
2023-02-26T12:42:57.570Z,6.30
2023-02-26T12:45:42.177Z,7.80
2023-02-26T12:48:51.315Z,7.50
2023-02-26T12:51:39.891Z,7.40
2023-02-26T12:54:32.319Z,8.30
2023-02-26T12:57:36.938Z,5.90
2023-02-26T13:00:28.898Z,8.20
2023-02-26T13:03:46.404Z,7.80
2023-02-26T13:06:52.814Z,6.30
2023-02-26T13:09:34.480Z,8.50
2023-02-26T13:12:18.867Z,9.80
2023-02-26T13:15:01.680Z,6.70
2023-02-26T13:17:41.567Z,6.90
2023-02-26T13:20:18.967Z,6.10
2023-02-26T13:22:54.586Z,8.40
2023-02-26T13:28:05.487Z,5.90
2023-02-26T13:30:42.534Z,6.60
2023-02-26T13:33:22.159Z,6.50
2023-02-26T13:35:56.899Z,9.90
2023-02-26T13:38:40.903Z,6.70
2023-02-26T13:41:18.088Z,7.10
2023-02-26T13:44:03.160Z,6.00
2023-02-26T13:46:49.693Z,7.80
2023-02-26T13:49:30.111Z,6.10
2023-02-26T13:52:02.566Z,6.20
2023-02-26T13:54:46.658Z,6.60
2023-02-26T13:57:44.396Z,9.50
2023-02-26T14:00:32.913Z,10.70
2023-02-26T14:03:31.162Z,7.10
2023-02-26T14:06:39.396Z,7.20
2023-02-26T14:09:55.456Z,6.30
2023-02-26T14:12:36.461Z,6.40
2023-02-26T14:15:40.828Z,7.70
2023-02-26T14:18:31.558Z,7.20
2023-02-26T14:21:35.886Z,6.90
2023-02-26T14:24:20.355Z,8.20
2023-02-26T14:27:05.729Z,8.20
2023-02-26T14:29:44.498Z,4.70
2023-02-26T14:32:28.638Z,5.90
2023-02-26T14:35:06.427Z,5.20
2023-02-26T14:37:42.725Z,6.20
2023-02-26T14:40:19.342Z,7.30
2023-02-26T14:42:54.520Z,7.90
2023-02-26T14:45:31.873Z,9.00
2023-02-26T14:48:06.900Z,6.00
2023-02-26T14:50:47.795Z,7.70
2023-02-26T14:53:47.213Z,6.20
2023-02-26T14:56:28.414Z,7.30
2023-02-26T14:59:18.107Z,7.10
2023-02-26T15:01:57.756Z,8.10
2023-02-26T15:05:00.051Z,8.60
2023-02-26T15:07:49.909Z,6.80
2023-02-26T15:10:45.085Z,7.20
2023-02-26T15:13:36.695Z,6.90
2023-02-26T15:16:20.064Z,8.70
2023-02-26T15:19:15.036Z,5.10
2023-02-26T15:22:02.370Z,7.10
2023-02-26T15:24:35.422Z,7.30
2023-02-26T15:27:11.345Z,7.60
2023-02-26T15:29:44.802Z,7.60
2023-02-26T15:32:25.130Z,8.60
2023-02-26T15:35:02.867Z,7.40
2023-02-26T15:37:35.678Z,6.50
2023-02-26T15:40:11.052Z,7.40
2023-02-26T15:42:46.424Z,6.20
2023-02-26T15:45:24.287Z,7.90
2023-02-26T15:48:00.430Z,6.50
2023-02-26T15:50:39.043Z,10.20
2023-02-26T15:53:15.535Z,10.70
2023-02-26T15:55:52.464Z,7.10
2023-02-26T15:58:32.381Z,7.70
2023-02-26T16:01:07.193Z,5.40
2023-02-26T16:03:41.288Z,8.20
2023-02-26T16:06:17.562Z,8.40
2023-02-26T16:08:50.132Z,6.60
2023-02-26T16:11:24.098Z,7.60
2023-02-26T16:13:56.732Z,8.20
2023-02-26T16:16:36.069Z,5.40
2023-02-26T16:19:11.012Z,6.40
2023-02-26T16:21:44.649Z,8.80
2023-02-26T16:24:21.176Z,5.70
2023-02-26T16:26:57.712Z,9.90
2023-02-26T16:29:32.033Z,6.30
2023-02-26T16:32:06.151Z,6.60
2023-02-26T16:34:44.564Z,6.50
2023-02-26T16:37:33.344Z,6.50
2023-02-26T16:40:24.164Z,7.60
2023-02-26T16:43:01.989Z,5.50
2023-02-26T16:45:54.071Z,8.50
2023-02-26T16:48:31.664Z,6.20
2023-02-26T16:51:07.641Z,7.10
2023-02-26T16:53:45.898Z,7.30
2023-02-26T16:56:21.596Z,7.60
2023-02-26T17:01:28.757Z,6.40
2023-02-26T17:04:04.086Z,9.40
2023-02-26T17:06:40.093Z,7.30
2023-02-26T17:09:32.121Z,4.90
2023-02-26T17:12:14.022Z,8.20
2023-02-26T17:14:49.580Z,7.50
2023-02-26T17:17:21.902Z,5.00
2023-02-26T17:19:54.436Z,6.20
2023-02-26T17:22:30.120Z,7.20
2023-02-26T17:25:02.519Z,12.00
2023-02-26T17:27:37.666Z,13.80
2023-02-26T17:30:17.214Z,11.90
2023-02-26T17:32:49.807Z,14.90
2023-02-26T17:35:22.240Z,12.70
2023-02-26T17:37:54.935Z,12.20
2023-02-26T17:40:29.508Z,14.30
2023-02-26T17:43:03.891Z,13.30
2023-02-26T17:45:38.109Z,14.30
2023-02-26T17:48:12.743Z,14.10
2023-02-26T17:50:48.328Z,12.20
2023-02-26T17:53:22.362Z,11.90
2023-02-26T17:55:56.658Z,15.30
2023-02-26T17:58:32.264Z,13.70
2023-02-26T18:01:05.314Z,14.10
2023-02-26T18:03:39.930Z,12.90
2023-02-26T18:06:15.022Z,13.20
2023-02-26T18:08:48.750Z,17.50
2023-02-26T18:11:24.073Z,15.00
2023-02-26T18:13:57.041Z,17.20
2023-02-26T18:16:34.244Z,21.70
2023-02-26T18:19:07.719Z,18.20
2023-02-26T18:21:40.063Z,18.70
2023-02-26T18:24:12.666Z,19.80
2023-02-26T18:26:45.154Z,19.80
2023-02-26T18:29:17.460Z,19.90
2023-02-26T18:31:50.075Z,20.00
2023-02-26T18:34:23.792Z,17.00
2023-02-26T18:36:56.086Z,18.20
2023-02-26T18:39:32.640Z,15.20
2023-02-26T18:42:05.159Z,13.10
2023-02-26T18:44:37.572Z,15.00
2023-02-26T18:47:10.419Z,13.20
2023-02-26T18:49:42.928Z,12.80
2023-02-26T18:52:15.984Z,12.50
2023-02-26T18:54:48.210Z,15.40
2023-02-26T18:57:20.498Z,14.60
2023-02-26T18:59:53.033Z,14.00
2023-02-26T19:02:25.583Z,13.00
2023-02-26T19:04:58.094Z,15.30
2023-02-26T19:07:30.745Z,14.40
2023-02-26T19:10:03.603Z,15.80
2023-02-26T19:12:36.315Z,12.40
2023-02-26T19:15:11.473Z,15.10
2023-02-26T19:17:44.188Z,14.00
2023-02-26T19:20:18.725Z,13.20
2023-02-26T19:22:51.004Z,13.50
2023-02-26T19:25:27.237Z,13.30
2023-02-26T19:27:59.587Z,15.20
2023-02-26T19:30:32.268Z,12.90
2023-02-26T19:33:05.119Z,15.80
2023-02-26T19:35:37.819Z,14.80
2023-02-26T19:38:10.535Z,13.80
2023-02-26T19:40:43.764Z,15.20
2023-02-26T19:43:16.205Z,12.70
2023-02-26T19:45:48.592Z,10.20
2023-02-26T19:48:21.300Z,11.50
2023-02-26T19:50:56.005Z,13.40
2023-02-26T19:53:29.646Z,11.90
2023-02-26T19:56:02.353Z,10.10
2023-02-26T19:58:35.137Z,11.60
2023-02-26T20:01:08.127Z,11.50
2023-02-26T20:03:40.606Z,9.70
2023-02-26T20:06:13.880Z,13.10
2023-02-26T20:08:46.359Z,9.10
2023-02-26T20:11:18.680Z,9.40
2023-02-26T20:13:51.185Z,9.30
2023-02-26T20:16:23.519Z,9.30
2023-02-26T20:18:55.825Z,8.00
2023-02-26T20:21:28.882Z,9.20
2023-02-26T20:24:01.455Z,8.50
2023-02-26T20:26:34.175Z,9.30
2023-02-26T20:29:06.569Z,8.60
2023-02-26T20:31:39.447Z,10.10
2023-02-26T20:34:11.983Z,9.50
2023-02-26T20:36:45.537Z,9.70
2023-02-26T20:39:19.630Z,9.90
2023-02-26T20:41:52.058Z,7.30
2023-02-26T20:44:24.896Z,9.50
2023-02-26T20:46:57.231Z,10.80
2023-02-26T20:49:30.292Z,9.50
2023-02-26T20:52:02.822Z,9.50
2023-02-26T20:54:35.284Z,8.50
2023-02-26T20:57:07.732Z,8.90
2023-02-26T20:59:40.252Z,8.90
2023-02-26T21:02:15.600Z,8.20
2023-02-26T21:04:48.107Z,8.40
2023-02-26T21:07:23.084Z,8.20
2023-02-26T21:09:55.747Z,7.70
2023-02-26T21:12:31.011Z,7.70
2023-02-26T21:15:03.598Z,9.20
2023-02-26T21:17:35.911Z,9.20
2023-02-26T21:20:10.526Z,9.40
2023-02-26T21:22:43.270Z,10.30
2023-02-26T21:25:15.595Z,8.20
2023-02-26T21:27:48.003Z,8.60
2023-02-26T21:30:21.073Z,9.50
2023-02-26T21:32:53.684Z,8.70
2023-02-26T21:35:26.070Z,7.70
2023-02-26T21:38:00.399Z,6.40
2023-02-26T21:40:32.800Z,5.50
2023-02-26T21:43:05.305Z,6.70
2023-02-26T21:45:37.670Z,7.00
2023-02-26T21:48:10.416Z,5.20
2023-02-26T21:50:42.722Z,6.50
2023-02-26T21:53:14.953Z,5.30
2023-02-26T21:55:47.258Z,7.40
2023-02-26T21:58:19.678Z,6.70
2023-02-26T22:00:52.701Z,6.60
2023-02-26T22:03:25.135Z,5.90
2023-02-26T22:05:57.485Z,6.30
2023-02-26T22:08:29.810Z,6.40
2023-02-26T22:11:02.258Z,5.00
2023-02-26T22:13:34.653Z,4.80
2023-02-26T22:16:08.121Z,5.20
2023-02-26T22:18:40.792Z,5.50
2023-02-26T22:21:13.566Z,6.20
2023-02-26T22:23:45.837Z,5.60
2023-02-26T22:26:18.451Z,6.10
2023-02-26T22:28:50.911Z,4.70
2023-02-26T22:31:23.198Z,3.90
2023-02-26T22:33:56.574Z,4.60
2023-02-26T22:36:30.277Z,4.70
2023-02-26T22:39:02.672Z,4.20
2023-02-26T22:41:35.692Z,3.70
2023-02-26T22:44:08.781Z,3.90
2023-02-26T22:46:41.145Z,4.90
2023-02-26T22:49:13.465Z,3.80
2023-02-26T22:51:45.891Z,4.80
2023-02-26T22:54:18.267Z,4.00
2023-02-26T22:56:50.572Z,5.50
2023-02-26T22:59:22.861Z,3.70
2023-02-26T23:01:55.270Z,5.60
2023-02-26T23:04:28.083Z,5.50
2023-02-26T23:07:00.284Z,5.00
2023-02-26T23:09:32.728Z,5.10
2023-02-26T23:12:05.417Z,5.60
2023-02-26T23:14:37.959Z,4.40
2023-02-26T23:17:11.508Z,4.90
2023-02-26T23:19:44.182Z,4.40
2023-02-26T23:22:16.634Z,4.70
2023-02-26T23:24:48.998Z,5.10
2023-02-26T23:27:21.298Z,5.50
2023-02-26T23:29:53.731Z,4.90
2023-02-26T23:32:26.090Z,5.30
2023-02-26T23:34:59.087Z,7.10
2023-02-26T23:37:31.398Z,7.60
2023-02-26T23:40:04.077Z,6.60
2023-02-26T23:42:36.838Z,4.80
2023-02-26T23:45:11.181Z,6.40
2023-02-26T23:47:43.576Z,5.40
2023-02-26T23:50:16.471Z,5.70
2023-02-26T23:52:48.737Z,6.00
2023-02-26T23:55:21.050Z,8.00
2023-02-26T23:57:53.656Z,6.10
